Time;durP1;ratioP1;P1;durP2;ratioP2;P2;SDS_P1;SDS_P2;PMS_P1;PMS_P2;Temp;Humidity;BMP_temperature;BMP_pressure;BME280_temperature;BME280_humidity;BME280_pressure;Samples;Min_cycle;Max_cycle;Signal;HPM_P1;HPM_P2
2022/02/28 00:03:26;;;;;;;2.23;1.60;;;17.00;60.10;;;;;;10322741;28;20705;-64
2022/02/28 00:08:49;;;;;;;1.50;1.20;;;17.00;60.10;;;;;;10331513;28;20219;-63
2022/02/28 00:14:12;;;;;;;1.67;1.20;;;17.00;60.10;;;;;;10330303;28;20195;-64
2022/02/28 00:19:34;;;;;;;1.60;1.30;;;17.00;60.20;;;;;;10329049;28;20211;-63
2022/02/28 00:24:56;;;;;;;2.53;1.60;;;17.00;60.00;;;;;;10330777;28;20696;-64
2022/02/28 00:30:20;;;;;;;1.50;1.40;;;17.00;60.00;;;;;;10330502;28;20585;-64
2022/02/28 00:35:42;;;;;;;2.67;1.83;;;17.00;60.10;;;;;;10329031;28;20206;-64
2022/02/28 00:41:04;;;;;;;1.87;1.23;;;17.10;60.80;;;;;;10330297;28;20223;-63
2022/02/28 00:46:28;;;;;;;2.53;1.50;;;17.10;60.10;;;;;;10328914;28;20562;-65
2022/02/28 00:51:51;;;;;;;2.83;1.30;;;17.10;60.10;;;;;;10329387;28;20279;-64
2022/02/28 00:57:13;;;;;;;1.80;1.30;;;17.00;60.10;;;;;;10327647;28;20586;-64
2022/02/28 01:02:37;;;;;;;1.97;1.43;;;17.00;60.70;;;;;;10320688;28;20226;-64
2022/02/28 01:07:59;;;;;;;2.00;1.63;;;17.00;60.10;;;;;;10328776;28;20198;-64
2022/02/28 01:13:21;;;;;;;1.17;1.07;;;17.00;60.00;;;;;;10330050;28;20544;-63
2022/02/28 01:18:44;;;;;;;1.83;1.57;;;17.00;60.10;;;;;;10330026;28;20214;-64
2022/02/28 01:24:07;;;;;;;2.17;1.50;;;17.00;60.10;;;;;;10328884;28;20237;-64
2022/02/28 01:29:29;;;;;;;1.70;1.40;;;17.00;60.10;;;;;;10327774;28;20255;-63
2022/02/28 01:34:52;;;;;;;1.60;1.50;;;17.00;60.10;;;;;;10329021;28;20605;-64
2022/02/28 01:40:15;;;;;;;2.47;1.50;;;17.00;60.00;;;;;;10297935;28;20219;-64
2022/02/28 01:45:38;;;;;;;2.00;1.60;;;17.00;60.10;;;;;;10332576;28;20219;-63
2022/02/28 01:51:01;;;;;;;1.67;1.53;;;17.00;60.10;;;;;;10336851;28;20574;-64
2022/02/28 01:56:23;;;;;;;1.67;1.50;;;17.00;60.00;;;;;;10332877;28;20187;-63
2022/02/28 02:01:46;;;;;;;2.40;1.60;;;17.00;60.00;;;;;;10335471;28;20219;-64
2022/02/28 02:07:10;;;;;;;1.63;1.33;;;17.00;60.10;;;;;;10335946;28;20194;-64
2022/02/28 02:12:33;;;;;;;1.63;1.43;;;17.00;60.10;;;;;;10335886;28;20226;-64
2022/02/28 02:17:57;;;;;;;1.83;1.53;;;17.00;60.10;;;;;;10336076;28;20283;-64
2022/02/28 02:23:22;;;;;;;2.13;1.40;;;17.00;60.00;;;;;;10335813;28;20222;-62
2022/02/28 02:28:44;;;;;;;2.50;1.90;;;17.00;60.10;;;;;;10332768;28;20588;-64
2022/02/28 02:34:07;;;;;;;1.60;1.47;;;17.00;60.00;;;;;;10334230;28;20214;-64
2022/02/28 02:39:30;;;;;;;1.70;1.57;;;17.00;60.10;;;;;;10335481;28;20219;-63
2022/02/28 02:44:52;;;;;;;2.50;1.70;;;17.00;60.00;;;;;;10333798;28;20215;-64
2022/02/28 02:50:14;;;;;;;1.63;1.50;;;17.00;60.00;;;;;;10333547;28;20223;-65
2022/02/28 02:55:38;;;;;;;1.90;1.67;;;17.00;60.00;;;;;;10330490;28;20192;-63
2022/02/28 03:01:01;;;;;;;1.93;1.70;;;17.00;60.00;;;;;;10334036;28;20211;-64
2022/02/28 03:06:23;;;;;;;2.27;1.70;;;17.00;60.10;;;;;;10333478;28;20202;-64
2022/02/28 03:11:48;;;;;;;2.00;1.67;;;17.00;60.00;;;;;;10331707;28;20211;-64
2022/02/28 03:17:10;;;;;;;2.00;1.80;;;17.00;60.00;;;;;;10333898;28;20198;-64
2022/02/28 03:22:32;;;;;;;2.17;1.80;;;17.00;60.00;;;;;;10332500;28;20218;-63
2022/02/28 03:27:55;;;;;;;1.60;1.50;;;16.90;59.90;;;;;;10332360;28;20191;-64
2022/02/28 03:33:17;;;;;;;2.50;1.50;;;17.00;60.00;;;;;;10332172;28;20214;-64
2022/02/28 03:38:39;;;;;;;2.40;1.80;;;17.00;59.90;;;;;;10331896;28;20218;-64
2022/02/28 03:44:03;;;;;;;2.47;1.80;;;17.00;59.90;;;;;;10331589;28;20222;-64
2022/02/28 03:49:25;;;;;;;1.90;1.53;;;17.00;59.90;;;;;;10331474;28;20211;-63
2022/02/28 03:54:47;;;;;;;1.70;1.60;;;17.00;59.90;;;;;;10326420;28;20191;-64
2022/02/28 04:00:12;;;;;;;2.07;1.87;;;17.00;59.90;;;;;;10330987;28;20284;-64
2022/02/28 04:05:34;;;;;;;2.27;2.00;;;17.00;59.90;;;;;;10329536;28;20823;-64
2022/02/28 04:10:56;;;;;;;2.30;1.60;;;17.00;60.00;;;;;;10331140;28;20233;-64
2022/02/28 04:16:19;;;;;;;2.07;1.60;;;17.00;60.00;;;;;;10330479;28;20195;-64
2022/02/28 04:21:41;;;;;;;2.00;1.70;;;17.00;59.90;;;;;;10329473;28;20649;-65
2022/02/28 04:27:04;;;;;;;2.67;2.00;;;16.90;59.80;;;;;;10329364;28;20198;-64
2022/02/28 04:32:28;;;;;;;1.90;1.60;;;17.00;59.80;;;;;;10329729;28;20230;-64
2022/02/28 04:37:50;;;;;;;2.10;1.57;;;17.00;59.90;;;;;;10329831;28;20690;-64
2022/02/28 04:43:12;;;;;;;2.00;1.70;;;16.90;59.80;;;;;;10327957;28;20230;-64
2022/02/28 04:48:35;;;;;;;2.20;1.97;;;17.00;59.80;;;;;;10328892;28;20195;-64
2022/02/28 04:53:58;;;;;;;2.30;1.90;;;16.90;59.70;;;;;;10289030;28;20199;-64
2022/02/28 04:59:20;;;;;;;2.20;1.80;;;17.00;59.80;;;;;;10308099;28;20227;-64
2022/02/28 05:04:43;;;;;;;2.20;1.90;;;17.00;59.70;;;;;;10323866;28;20215;-63
2022/02/28 05:10:07;;;;;;;2.20;2.00;;;17.00;59.70;;;;;;10329041;28;20227;-64
2022/02/28 05:15:29;;;;;;;2.23;1.80;;;17.00;59.70;;;;;;10328490;28;20272;-64
2022/02/28 05:20:53;;;;;;;1.83;1.70;;;17.00;59.70;;;;;;10337343;28;20223;-65
2022/02/28 05:26:15;;;;;;;2.90;2.00;;;17.10;59.70;;;;;;10331735;28;20227;-64
2022/02/28 05:31:37;;;;;;;2.63;2.13;;;17.10;59.70;;;;;;10330779;28;20233;-64
2022/02/28 05:37:01;;;;;;;2.80;2.00;;;17.00;59.60;;;;;;10331455;28;20210;-64
2022/02/28 05:42:23;;;;;;;2.40;2.07;;;17.00;59.70;;;;;;10331052;28;20609;-64
2022/02/28 05:47:45;;;;;;;1.90;1.70;;;17.00;59.60;;;;;;10331560;28;20199;-64
2022/02/28 05:53:09;;;;;;;1.97;1.63;;;17.00;59.70;;;;;;10332538;28;20229;-64
2022/02/28 05:58:31;;;;;;;2.53;2.27;;;17.00;59.60;;;;;;10333736;28;20577;-64
2022/02/28 06:03:53;;;;;;;2.37;2.10;;;17.00;59.60;;;;;;10312620;28;20223;-64
2022/02/28 06:09:17;;;;;;;2.40;1.97;;;17.00;59.60;;;;;;10323975;28;20690;-64
2022/02/28 06:14:39;;;;;;;2.30;1.97;;;17.10;59.70;;;;;;10336272;28;20195;-63
2022/02/28 06:20:01;;;;;;;2.63;2.00;;;17.10;60.20;;;;;;10332750;28;20233;-63
2022/02/28 06:25:24;;;;;;;2.63;2.03;;;17.10;59.60;;;;;;10333683;28;20222;-64
2022/02/28 06:30:47;;;;;;;2.57;2.33;;;17.00;59.50;;;;;;10335046;28;20690;-64
2022/02/28 06:36:10;;;;;;;3.63;2.67;;;17.10;59.60;;;;;;10334280;28;20195;-64
2022/02/28 06:41:34;;;;;;;3.20;2.60;;;17.10;59.50;;;;;;10314597;28;20230;-64
2022/02/28 06:46:56;;;;;;;3.10;2.53;;;17.10;59.50;;;;;;10317722;28;20559;-64
2022/02/28 06:52:18;;;;;;;2.73;2.20;;;17.00;59.40;;;;;;10314408;28;20211;-64
2022/02/28 06:57:42;;;;;;;3.00;2.47;;;17.10;59.50;;;;;;10327962;28;20228;-62
2022/02/28 07:03:04;;;;;;;2.90;2.30;;;17.00;59.40;;;;;;10332812;28;20227;-63
2022/02/28 07:08:27;;;;;;;3.03;2.63;;;17.00;59.20;;;;;;10318680;28;20270;-63
2022/02/28 07:13:51;;;;;;;3.20;2.80;;;17.00;59.20;;;;;;10394861;22;20226;-62
2022/02/28 07:19:13;;;;;;;3.30;2.63;;;17.00;59.30;;;;;;10364310;28;20201;-61
2022/02/28 07:24:35;;;;;;;2.90;2.60;;;17.00;59.30;;;;;;10372438;28;20808;-62
2022/02/28 07:29:59;;;;;;;3.80;2.90;;;17.00;59.20;;;;;;10373927;28;20592;-62
2022/02/28 07:35:21;;;;;;;3.37;2.80;;;17.00;59.20;;;;;;10371879;28;20230;-62
2022/02/28 07:40:43;;;;;;;4.20;2.77;;;17.00;59.30;;;;;;10370573;28;20685;-62
2022/02/28 07:46:07;;;;;;;3.77;2.90;;;17.00;59.30;;;;;;10372101;28;20213;-60
2022/02/28 07:51:29;;;;;;;4.07;2.90;;;17.00;59.40;;;;;;10371291;28;20597;-62
2022/02/28 07:56:51;;;;;;;3.30;3.00;;;16.90;59.30;;;;;;10375790;28;20198;-62
2022/02/28 08:02:15;;;;;;;4.50;3.43;;;16.90;59.30;;;;;;10369998;28;20215;-62
2022/02/28 08:07:39;;;;;;;3.30;3.00;;;17.00;60.00;;;;;;10371715;28;20678;-61
2022/02/28 08:13:01;;;;;;;3.30;3.00;;;17.00;59.50;;;;;;10372755;28;20225;-62
2022/02/28 08:18:25;;;;;;;4.00;2.83;;;16.90;59.50;;;;;;10372128;28;20199;-62
2022/02/28 08:23:47;;;;;;;3.30;2.80;;;16.90;59.50;;;;;;10370953;28;20218;-61
2022/02/28 08:29:10;;;;;;;3.10;2.57;;;16.90;59.50;;;;;;10370680;28;20562;-61
2022/02/28 08:34:33;;;;;;;3.60;2.73;;;16.90;59.50;;;;;;10370220;28;20197;-61
2022/02/28 08:39:55;;;;;;;3.23;2.90;;;16.90;59.60;;;;;;10369967;28;20214;-63
2022/02/28 08:45:17;;;;;;;3.67;3.03;;;17.00;59.60;;;;;;10370681;28;20223;-61
2022/02/28 08:50:41;;;;;;;2.93;2.63;;;16.90;59.60;;;;;;10368958;28;20698;-62
2022/02/28 08:56:03;;;;;;;3.60;2.83;;;17.00;59.70;;;;;;10367171;28;20202;-62
2022/02/28 09:01:26;;;;;;;3.50;3.03;;;17.00;59.70;;;;;;10369141;28;20223;-60
2022/02/28 09:06:49;;;;;;;4.53;2.83;;;17.00;59.70;;;;;;10369182;28;20219;-61
2022/02/28 09:12:12;;;;;;;3.72;3.20;;;17.00;59.70;;;;;;10368066;28;20427;-62
2022/02/28 09:17:34;;;;;;;3.23;2.70;;;17.20;59.50;;;;;;10369712;28;20699;-61
2022/02/28 09:22:58;;;;;;;5.57;3.77;;;17.10;59.90;;;;;;10367695;28;20280;-59
2022/02/28 09:28:20;;;;;;;8.70;4.53;;;17.20;60.10;;;;;;10368609;28;20195;-61
2022/02/28 09:33:42;;;;;;;8.80;4.27;;;17.20;60.10;;;;;;10367572;28;20217;-59
2022/02/28 09:39:06;;;;;;;6.27;4.10;;;17.20;60.20;;;;;;10367953;28;20665;-59
2022/02/28 09:44:29;;;;;;;9.10;4.87;;;17.20;60.20;;;;;;10366817;28;20451;-59
2022/02/28 09:49:52;;;;;;;4.87;3.37;;;17.50;59.30;;;;;;10367268;28;20395;-58
2022/02/28 09:55:16;;;;;;;5.83;3.87;;;17.40;59.80;;;;;;10367332;28;20210;-61
2022/02/28 10:00:41;;;;;;;4.20;3.10;;;17.30;60.00;;;;;;10367232;28;20791;-60
2022/02/28 10:06:03;;;;;;;4.57;3.20;;;17.30;60.20;;;;;;10371177;28;20264;-61
2022/02/28 10:11:29;;;;;;;5.40;3.57;;;17.30;60.30;;;;;;10374509;28;20222;-60
2022/02/28 10:16:57;;;;;;;5.63;3.27;;;17.30;60.40;;;;;;10375436;28;20367;-61
2022/02/28 10:22:20;;;;;;;5.80;3.37;;;17.20;60.40;;;;;;10334039;28;20254;-61
2022/02/28 10:27:43;;;;;;;4.97;3.03;;;17.20;60.40;;;;;;10375062;28;20194;-62
2022/02/28 10:33:10;;;;;;;4.70;3.20;;;17.30;60.50;;;;;;10374660;28;20219;-60
2022/02/28 10:38:34;;;;;;;4.60;2.97;;;17.30;60.50;;;;;;10375855;28;20208;-60
2022/02/28 10:44:00;;;;;;;4.47;3.17;;;17.20;60.50;;;;;;10374958;28;20229;-59
2022/02/28 10:49:28;;;;;;;4.73;3.13;;;17.20;60.50;;;;;;10374242;28;20190;-59
2022/02/28 10:54:50;;;;;;;4.20;2.87;;;17.20;60.60;;;;;;10368619;28;20672;-61
2022/02/28 11:00:14;;;;;;;3.50;2.87;;;17.20;60.50;;;;;;10373626;28;20598;-61
2022/02/28 11:05:50;;;;;;;3.77;2.83;;;17.20;60.80;;;;;;10372610;28;20221;-58
2022/02/28 11:11:13;;;;;;;3.60;3.03;;;17.20;60.50;;;;;;10373099;28;20211;-59
2022/02/28 11:16:37;;;;;;;3.73;3.00;;;17.30;60.70;;;;;;10371469;28;20581;-59
2022/02/28 11:21:59;;;;;;;4.47;3.20;;;17.20;60.60;;;;;;10372300;28;20211;-59
2022/02/28 11:27:22;;;;;;;3.43;2.77;;;17.30;60.70;;;;;;10372788;28;20693;-59
2022/02/28 11:32:53;;;;;;;3.70;3.00;;;17.20;60.60;;;;;;10370445;28;20218;-58
2022/02/28 11:38:45;;;;;;;4.93;3.30;;;17.30;60.70;;;;;;10371073;28;20198;-60
2022/02/28 11:44:08;;;;;;;3.63;2.70;;;17.30;60.60;;;;;;10371147;28;20214;-59
2022/02/28 11:49:42;;;;;;;3.97;2.57;;;17.20;60.70;;;;;;10371058;28;20206;-59
2022/02/28 11:55:06;;;;;;;4.10;3.50;;;17.30;60.70;;;;;;10371013;28;20674;-61
2022/02/28 12:00:40;;;;;;;3.53;3.20;;;17.30;60.80;;;;;;10370572;28;20218;-59
2022/02/28 12:06:04;;;;;;;3.87;3.33;;;17.30;60.70;;;;;;10372583;28;20235;-60
2022/02/28 12:11:30;;;;;;;3.93;3.27;;;17.30;60.70;;;;;;10371748;28;20297;-61
2022/02/28 12:23:11;;;;;;;3.17;2.87;;;17.30;60.80;;;;;;10331538;28;20261;-59
2022/02/28 12:28:48;;;;;;;3.33;2.97;;;17.30;60.70;;;;;;10330500;28;20274;-61
2022/02/28 12:34:12;;;;;;;3.70;3.40;;;17.30;60.80;;;;;;10330353;28;20214;-59
2022/02/28 12:39:37;;;;;;;3.47;3.17;;;17.30;60.80;;;;;;10363400;28;20225;-61
2022/02/28 12:45:00;;;;;;;3.63;3.00;;;17.30;60.80;;;;;;10368183;28;20214;-59
2022/02/28 12:50:22;;;;;;;3.80;3.37;;;17.30;60.70;;;;;;10367714;28;20653;-60
2022/02/28 12:55:56;;;;;;;4.60;3.60;;;17.30;60.80;;;;;;10369905;28;20618;-61
2022/02/28 13:01:21;;;;;;;5.97;3.33;;;17.30;60.70;;;;;;10370868;28;20226;-60
2022/02/28 13:06:44;;;;;;;4.13;3.73;;;17.30;60.50;;;;;;10366786;28;20230;-61
2022/02/28 13:12:08;;;;;;;3.93;3.53;;;17.20;60.50;;;;;;10444986;22;20254;-64
2022/02/28 13:17:30;;;;;;;4.77;3.97;;;17.20;60.70;;;;;;10482028;28;20196;-61
2022/02/28 13:22:52;;;;;;;4.50;3.60;;;17.20;60.50;;;;;;10492701;28;20311;-63
2022/02/28 13:28:16;;;;;;;5.60;4.20;;;17.20;60.60;;;;;;10491745;28;20200;-63
2022/02/28 13:33:39;;;;;;;4.50;3.77;;;17.20;60.70;;;;;;10491220;28;20220;-63
2022/02/28 13:39:02;;;;;;;3.73;3.33;;;17.10;60.80;;;;;;10489404;28;20196;-65
2022/02/28 13:44:26;;;;;;;5.03;3.83;;;17.10;60.90;;;;;;10483215;28;20224;-66
2022/02/28 13:49:51;;;;;;;4.53;3.77;;;17.20;61.10;;;;;;10461465;28;20210;-64
2022/02/28 13:55:16;;;;;;;4.77;3.63;;;17.20;61.10;;;;;;10491767;28;20196;-65
2022/02/28 14:00:50;;;;;;;3.97;3.20;;;17.20;61.20;;;;;;10494620;28;20598;-64
2022/02/28 14:06:15;;;;;;;4.47;3.43;;;17.20;61.10;;;;;;10494044;28;20242;-64
2022/02/28 14:11:38;;;;;;;4.87;3.80;;;17.10;61.20;;;;;;10493660;28;20265;-63
2022/02/28 14:17:04;;;;;;;5.47;3.40;;;17.20;61.20;;;;;;10492263;28;20203;-62
2022/02/28 14:22:26;;;;;;;5.37;3.70;;;17.20;61.30;;;;;;10491754;28;20212;-63
2022/02/28 14:27:48;;;;;;;4.30;3.63;;;17.20;61.30;;;;;;10497656;28;20212;-63
2022/02/28 14:33:11;;;;;;;4.03;3.50;;;17.20;61.50;;;;;;10498798;28;20220;-66
2022/02/28 14:38:34;;;;;;;4.77;3.63;;;17.20;61.50;;;;;;10495552;28;20200;-63
2022/02/28 14:43:56;;;;;;;4.37;3.97;;;17.20;61.50;;;;;;10456482;28;20216;-62
2022/02/28 14:49:20;;;;;;;4.50;3.70;;;17.20;61.20;;;;;;10473599;28;20226;-63
2022/02/28 14:54:42;;;;;;;4.33;3.90;;;17.20;61.20;;;;;;10495964;28;20344;-63
2022/02/28 15:00:06;;;;;;;4.43;4.03;;;17.20;61.30;;;;;;10496783;28;20200;-63
2022/02/28 15:05:32;;;;;;;4.90;3.90;;;17.20;61.30;;;;;;10487940;28;20228;-63
2022/02/28 15:10:54;;;;;;;4.00;3.60;;;17.20;61.20;;;;;;10495033;28;20729;-63
2022/02/28 15:16:16;;;;;;;4.27;3.47;;;17.20;61.20;;;;;;10495970;28;20571;-64
2022/02/28 15:21:40;;;;;;;5.20;4.07;;;17.20;61.80;;;;;;10496117;28;20205;-66
2022/02/28 15:27:03;;;;;;;4.40;3.93;;;17.20;61.20;;;;;;10496751;28;20212;-63
2022/02/28 15:32:25;;;;;;;4.93;4.13;;;17.10;61.20;;;;;;10493059;28;20224;-63
2022/02/28 15:37:50;;;;;;;4.33;3.93;;;17.20;61.30;;;;;;10496016;28;20192;-63
2022/02/28 15:43:12;;;;;;;4.13;3.67;;;17.10;61.30;;;;;;10494698;28;20214;-63
2022/02/28 15:48:34;;;;;;;5.20;4.13;;;17.20;61.30;;;;;;10496248;28;20196;-63
2022/02/28 15:53:58;;;;;;;4.10;3.60;;;17.20;61.40;;;;;;10495323;28;20575;-64
2022/02/28 15:59:20;;;;;;;6.00;3.97;;;17.20;61.30;;;;;;10496150;28;20205;-66
2022/02/28 16:04:42;;;;;;;5.80;4.30;;;17.20;61.60;;;;;;10487198;28;20227;-66
2022/02/28 16:10:09;;;;;;;7.50;4.10;;;17.20;61.80;;;;;;10494453;28;20743;-66
2022/02/28 16:15:31;;;;;;;5.17;3.90;;;17.20;61.90;;;;;;10467828;28;20196;-66
2022/02/28 16:20:53;;;;;;;5.57;3.87;;;17.30;61.90;;;;;;10494267;28;20224;-66
2022/02/28 16:26:17;;;;;;;4.67;3.73;;;17.30;61.80;;;;;;10493758;28;20683;-66
2022/02/28 16:31:40;;;;;;;4.80;4.00;;;17.30;61.80;;;;;;10493817;28;20221;-66
2022/02/28 16:37:02;;;;;;;4.93;3.83;;;17.30;61.80;;;;;;10493677;28;20189;-66
2022/02/28 16:42:26;;;;;;;4.00;3.60;;;17.30;61.80;;;;;;10489421;28;20655;-64
2022/02/28 16:47:49;;;;;;;4.27;3.47;;;17.30;61.80;;;;;;10486319;28;20212;-66
2022/02/28 16:53:12;;;;;;;3.97;3.53;;;17.30;61.80;;;;;;10494109;28;20695;-66
2022/02/28 16:58:36;;;;;;;4.07;3.20;;;17.30;61.80;;;;;;10492822;28;20188;-66
2022/02/28 17:04:01;;;;;;;6.50;3.60;;;17.30;62.00;;;;;;10487750;28;20730;-66
2022/02/28 17:09:23;;;;;;;3.90;3.47;;;17.30;61.80;;;;;;10492815;28;20199;-65
2022/02/28 17:14:46;;;;;;;5.00;3.53;;;17.30;62.30;;;;;;10491245;28;20232;-66
2022/02/28 17:20:10;;;;;;;3.27;2.83;;;17.30;61.70;;;;;;10459741;28;20192;-67
2022/02/28 17:25:32;;;;;;;3.30;3.00;;;17.30;61.70;;;;;;10491835;28;20594;-61
2022/02/28 17:30:55;;;;;;;4.77;3.53;;;17.30;61.40;;;;;;10491873;28;20235;-62
2022/02/28 17:36:18;;;;;;;4.20;3.40;;;17.40;61.20;;;;;;10494345;28;20195;-63
2022/02/28 17:41:40;;;;;;;4.10;3.27;;;17.30;61.10;;;;;;10468829;28;20213;-62
2022/02/28 17:47:04;;;;;;;3.37;2.93;;;17.30;61.10;;;;;;10491693;28;20598;-63
2022/02/28 17:52:26;;;;;;;4.32;3.70;;;17.30;61.10;;;;;;10491100;28;20435;-64
2022/02/28 17:57:49;;;;;;;3.57;3.00;;;17.80;59.80;;;;;;10491088;28;20695;-64
2022/02/28 18:03:12;;;;;;;4.17;3.30;;;17.50;60.60;;;;;;10492789;28;20231;-64
2022/02/28 18:08:34;;;;;;;4.77;3.40;;;17.40;61.10;;;;;;10491189;28;20714;-62
2022/02/28 18:13:57;;;;;;;4.17;3.10;;;17.30;61.20;;;;;;10490314;28;20220;-64
2022/02/28 18:19:20;;;;;;;4.07;2.97;;;17.40;61.40;;;;;;10488030;28;20200;-64
2022/02/28 18:24:42;;;;;;;4.40;3.07;;;17.30;61.30;;;;;;10483720;28;20729;-63
2022/02/28 18:30:05;;;;;;;3.17;2.87;;;17.30;61.30;;;;;;10499992;28;20197;-64
2022/02/28 18:35:29;;;;;;;3.80;2.90;;;17.30;61.20;;;;;;10497403;28;20200;-64
